NFFN/NAN METAR and TAF weather

Enter ICAO airport designator
Station Type Date Time Source
NFFN METAR 2021/03/01 09:00 UTC NOAA

NFFN 010900Z 02015KT 9999 SCT020 BKN045 BKN110 27/23 Q1008 TEMPO 5000 RA


Station Type Date Time Source
NFFN Decoded METAR 2021/03/01 09:00 UTC NOAA

Nandi, Fiji (NFFN) 17-45S 177-27E 18M
Mar 01, 2021 - 04:00 AM EST / 2021.03.01 0900 UTC
Wind: from the NNE (020 degrees) at 17 MPH (15 KT):0
Visibility: greater than 7 mile(s):0
Sky conditions: mostly cloudy
Temperature: 80 F (27 C)
Dew Point: 73 F (23 C)
Relative Humidity: 78%
Pressure (altimeter): 29.77 in. Hg (1008 hPa)
ob: NFFN 010900Z 02015KT 9999 SCT020 BKN045 BKN110 27/23 Q1008 TEMPO 5000 RA
cycle: 9

Station Type Date Time Source
NFFN TAF 2021/03/01 06:33 UTC NOAA

TAF NFFN 010528Z 0106/0206 01009KT 9999 -RA SCT015 BKN040 BKN100
TEMPO 0106/0202 02015G25KT 3000 TSRA FEW016CB
TEMPO 0202/0206 3000 TSRA FEW016CB

Example: see airport list